createdAt,value
2023-05-14T00:00:37.180Z,99339.00
2023-05-14T00:01:37.214Z,99335.00
2023-05-14T00:02:37.343Z,99339.00
2023-05-14T00:03:37.355Z,99335.00
2023-05-14T00:04:37.290Z,99336.00
2023-05-14T00:05:37.249Z,99336.00
2023-05-14T00:06:37.272Z,99335.00
2023-05-14T00:07:37.287Z,99335.00
2023-05-14T00:08:37.313Z,99329.00
2023-05-14T00:09:37.331Z,99335.00
2023-05-14T00:10:37.344Z,99333.00
2023-05-14T00:11:37.347Z,99335.00
2023-05-14T00:12:37.353Z,99333.00
2023-05-14T00:13:37.350Z,99334.00
2023-05-14T00:14:37.352Z,99334.00
2023-05-14T00:15:37.486Z,99337.00
2023-05-14T00:16:37.635Z,99335.00
2023-05-14T00:17:37.469Z,99332.00
2023-05-14T00:18:37.473Z,99331.00
2023-05-14T00:19:37.434Z,99323.00
2023-05-14T00:20:37.460Z,99325.00
2023-05-14T00:21:37.451Z,99324.00
2023-05-14T00:22:37.442Z,99324.00
2023-05-14T00:23:37.422Z,99325.00
2023-05-14T00:24:37.454Z,99321.00
2023-05-14T00:25:37.533Z,99322.00
2023-05-14T00:26:37.494Z,99323.00
2023-05-14T00:27:37.460Z,99325.00
2023-05-14T00:28:37.482Z,99326.00
2023-05-14T00:29:37.514Z,99327.00
2023-05-14T00:30:37.536Z,99330.00
2023-05-14T00:31:37.570Z,99324.00
2023-05-14T00:32:37.557Z,99329.00
2023-05-14T00:33:37.559Z,99329.00
2023-05-14T00:34:37.568Z,99325.00
2023-05-14T00:35:37.584Z,99325.00
2023-05-14T00:36:37.621Z,99323.00
2023-05-14T00:37:37.746Z,99322.00
2023-05-14T00:38:37.641Z,99323.00
2023-05-14T00:39:37.656Z,99319.00
2023-05-14T00:40:37.674Z,99323.00
2023-05-14T00:41:37.681Z,99320.00
2023-05-14T00:42:37.715Z,99320.00
2023-05-14T00:43:37.699Z,99318.00
2023-05-14T00:44:37.703Z,99322.00
2023-05-14T00:45:37.723Z,99321.00
2023-05-14T00:46:37.805Z,99319.00
2023-05-14T00:47:37.879Z,99322.00
2023-05-14T00:48:37.750Z,99323.00
2023-05-14T00:49:37.801Z,99323.00
2023-05-14T00:50:37.785Z,99324.00
2023-05-14T00:51:37.801Z,99322.00
2023-05-14T00:52:37.809Z,99322.00
2023-05-14T00:53:37.824Z,99321.00
2023-05-14T00:54:37.854Z,99321.00
2023-05-14T00:55:37.899Z,99321.00
2023-05-14T00:56:37.925Z,99323.00
2023-05-14T00:57:37.911Z,99319.00
2023-05-14T00:58:37.909Z,99314.00
2023-05-14T00:59:37.924Z,99314.00
2023-05-14T01:00:37.995Z,99315.00
2023-05-14T01:01:37.937Z,99314.00
2023-05-14T01:02:38.045Z,99313.00
2023-05-14T01:03:38.006Z,99306.00
2023-05-14T01:04:38.012Z,99312.00
2023-05-14T01:05:38.046Z,99314.00
2023-05-14T01:06:37.984Z,99311.00
2023-05-14T01:07:37.999Z,99310.00
2023-05-14T01:08:38.021Z,99314.00
2023-05-14T01:09:38.046Z,99311.00
2023-05-14T01:10:38.061Z,99316.00
2023-05-14T01:11:38.072Z,99313.00
2023-05-14T01:12:38.061Z,99309.00
2023-05-14T01:13:38.087Z,99309.00
2023-05-14T01:14:38.108Z,99307.00
2023-05-14T01:15:38.121Z,99310.00
2023-05-14T01:16:38.138Z,99312.00
2023-05-14T01:17:38.149Z,99307.00
2023-05-14T01:18:38.191Z,99307.00
2023-05-14T01:19:38.173Z,99310.00
2023-05-14T01:20:38.180Z,99310.00
2023-05-14T01:21:38.229Z,99310.00
2023-05-14T01:22:38.216Z,99311.00
2023-05-14T01:23:38.176Z,99309.00
2023-05-14T01:24:38.181Z,99310.00
2023-05-14T01:25:38.200Z,99310.00
2023-05-14T01:26:38.242Z,99307.00
2023-05-14T01:27:38.231Z,99307.00
2023-05-14T01:28:38.241Z,99302.00
2023-05-14T01:29:38.258Z,99301.00
2023-05-14T01:30:38.318Z,99298.00
2023-05-14T01:31:38.322Z,99296.00
2023-05-14T01:32:38.344Z,99296.00
2023-05-14T01:33:38.333Z,99290.00
2023-05-14T01:34:38.350Z,99298.00
2023-05-14T01:35:38.364Z,99291.00
2023-05-14T01:36:38.380Z,99294.00
2023-05-14T01:37:38.400Z,99297.00
2023-05-14T01:38:38.365Z,99299.00
2023-05-14T01:39:38.347Z,99297.00
2023-05-14T01:40:38.375Z,99297.00
2023-05-14T01:41:38.397Z,99303.00
2023-05-14T01:42:38.382Z,99300.00
2023-05-14T01:43:38.413Z,99299.00
2023-05-14T01:44:38.440Z,99301.00
2023-05-14T01:45:38.458Z,99301.00
2023-05-14T01:46:38.506Z,99298.00
2023-05-14T01:47:38.492Z,99297.00
2023-05-14T01:48:38.475Z,99293.00
2023-05-14T01:49:38.494Z,99290.00
2023-05-14T01:50:38.523Z,99295.00
2023-05-14T01:51:38.553Z,99292.00
2023-05-14T01:52:38.572Z,99291.00
2023-05-14T01:53:38.573Z,99290.00
2023-05-14T01:54:38.572Z,99286.00
2023-05-14T01:55:38.598Z,99289.00
2023-05-14T01:56:38.671Z,99285.00
2023-05-14T01:57:38.655Z,99286.00
2023-05-14T01:58:38.669Z,99289.00
2023-05-14T01:59:38.675Z,99288.00
2023-05-14T02:00:38.695Z,99293.00
2023-05-14T02:01:38.813Z,99291.00
2023-05-14T02:02:38.720Z,99294.00
2023-05-14T02:03:38.775Z,99290.00
2023-05-14T02:04:38.757Z,99291.00
2023-05-14T02:05:38.778Z,99289.00
2023-05-14T02:06:39.078Z,99290.00
2023-05-14T02:07:38.786Z,99286.00
2023-05-14T02:08:38.799Z,99285.00
2023-05-14T02:09:38.846Z,99283.00
2023-05-14T02:10:38.848Z,99285.00
2023-05-14T02:11:38.874Z,99283.00
2023-05-14T02:12:38.903Z,99284.00
2023-05-14T02:13:39.117Z,99285.00
2023-05-14T02:14:38.895Z,99288.00
2023-05-14T02:15:38.923Z,99284.00
2023-05-14T02:16:38.934Z,99285.00
2023-05-14T02:17:38.951Z,99284.00
2023-05-14T02:18:39.001Z,99283.00
2023-05-14T02:19:38.935Z,99283.00
2023-05-14T02:20:38.894Z,99286.00
2023-05-14T02:21:38.906Z,99283.00
2023-05-14T02:22:38.934Z,99283.00
2023-05-14T02:23:41.874Z,99283.00
2023-05-14T02:24:38.968Z,99283.00
2023-05-14T02:25:39.013Z,99281.00
2023-05-14T02:26:39.036Z,99283.00
2023-05-14T02:27:39.055Z,99283.00
2023-05-14T02:28:39.057Z,99283.00
2023-05-14T02:29:39.074Z,99282.00
2023-05-14T02:30:39.088Z,99282.00
2023-05-14T02:31:39.147Z,99288.00
2023-05-14T02:32:39.184Z,99284.00
2023-05-14T02:33:39.254Z,99288.00
2023-05-14T02:34:39.175Z,99285.00
2023-05-14T02:35:39.157Z,99285.00
2023-05-14T02:36:39.196Z,99288.00
2023-05-14T02:37:39.216Z,99292.00
2023-05-14T02:38:39.235Z,99290.00
2023-05-14T02:39:39.247Z,99292.00
2023-05-14T02:40:39.251Z,99289.00
2023-05-14T02:41:39.302Z,99289.00
2023-05-14T02:42:39.265Z,99290.00
2023-05-14T02:43:39.246Z,99292.00
2023-05-14T02:44:39.272Z,99291.00
2023-05-14T02:45:39.285Z,99291.00
2023-05-14T02:46:39.355Z,99291.00
2023-05-14T02:47:39.358Z,99291.00
2023-05-14T02:48:39.332Z,99289.00
2023-05-14T02:49:39.355Z,99290.00
2023-05-14T02:50:39.377Z,99289.00
2023-05-14T02:51:39.410Z,99284.00
2023-05-14T02:52:39.425Z,99288.00
2023-05-14T02:53:39.440Z,99288.00
2023-05-14T02:54:39.430Z,99281.00
2023-05-14T02:55:39.432Z,99284.00
2023-05-14T02:56:39.447Z,99287.00
2023-05-14T02:57:39.462Z,99288.00
2023-05-14T02:58:39.431Z,99286.00
2023-05-14T02:59:39.459Z,99286.00
2023-05-14T03:00:39.538Z,99286.00
2023-05-14T03:01:39.482Z,99289.00
2023-05-14T03:02:39.581Z,99286.00
2023-05-14T03:03:39.486Z,99290.00
2023-05-14T03:04:39.496Z,99285.00
2023-05-14T03:05:39.511Z,99287.00
2023-05-14T03:06:39.546Z,99288.00
2023-05-14T03:07:39.520Z,99285.00
2023-05-14T03:08:39.572Z,99285.00
2023-05-14T03:09:39.552Z,99285.00
2023-05-14T03:10:39.557Z,99288.00
2023-05-14T03:11:39.565Z,99285.00
2023-05-14T03:12:39.540Z,99289.00
2023-05-14T03:13:39.608Z,99284.00
2023-05-14T03:14:39.517Z,99289.00
2023-05-14T03:15:39.534Z,99287.00
2023-05-14T03:16:39.569Z,99289.00
2023-05-14T03:17:39.587Z,99289.00
2023-05-14T03:18:39.613Z,99292.00
2023-05-14T03:19:39.580Z,99289.00
2023-05-14T03:20:39.586Z,99287.00
2023-05-14T03:21:39.613Z,99288.00
2023-05-14T03:22:39.650Z,99290.00
2023-05-14T03:23:39.664Z,99287.00
2023-05-14T03:24:39.685Z,99282.00
2023-05-14T03:25:39.702Z,99287.00
2023-05-14T03:26:39.751Z,99283.00
2023-05-14T03:27:39.736Z,99285.00
2023-05-14T03:28:39.754Z,99283.00
2023-05-14T03:29:39.789Z,99280.00
2023-05-14T03:30:39.768Z,99285.00
2023-05-14T03:31:39.748Z,99284.00
2023-05-14T03:32:39.783Z,99281.00
2023-05-14T03:33:39.777Z,99279.00
2023-05-14T03:34:39.811Z,99284.00
2023-05-14T03:35:39.793Z,99283.00
2023-05-14T03:36:39.810Z,99286.00
2023-05-14T03:37:39.831Z,99283.00
2023-05-14T03:38:39.838Z,99277.00
2023-05-14T03:39:39.867Z,99283.00
2023-05-14T03:40:39.871Z,99281.00
2023-05-14T03:41:39.902Z,99278.00
2023-05-14T03:42:39.904Z,99279.00
2023-05-14T03:43:39.908Z,99282.00
2023-05-14T03:44:39.932Z,99280.00
2023-05-14T03:45:39.987Z,99283.00
2023-05-14T03:46:39.977Z,99283.00
2023-05-14T03:47:40.023Z,99284.00
2023-05-14T03:48:40.029Z,99280.00
2023-05-14T03:49:40.016Z,99279.00
2023-05-14T03:50:40.039Z,99282.00
2023-05-14T03:51:40.061Z,99278.00
2023-05-14T03:52:40.070Z,99279.00
2023-05-14T03:53:40.089Z,99272.00
2023-05-14T03:54:40.096Z,99277.00
2023-05-14T03:55:40.116Z,99277.00
2023-05-14T03:56:40.123Z,99279.00
2023-05-14T03:57:40.161Z,99279.00
2023-05-14T03:58:40.146Z,99277.00
2023-05-14T03:59:40.165Z,99278.00
2023-05-14T04:00:40.173Z,99279.00
2023-05-14T04:01:40.215Z,99280.00
2023-05-14T04:02:40.271Z,99272.00
2023-05-14T04:03:40.342Z,99277.00
2023-05-14T04:04:40.229Z,99279.00
2023-05-14T04:05:40.203Z,99277.00
2023-05-14T04:06:40.176Z,99282.00
2023-05-14T04:07:40.194Z,99278.00
2023-05-14T04:08:40.205Z,99279.00
2023-05-14T04:09:40.219Z,99278.00
2023-05-14T04:10:40.241Z,99281.00
2023-05-14T04:11:40.268Z,99280.00
2023-05-14T04:12:40.277Z,99279.00
2023-05-14T04:13:40.288Z,99280.00
2023-05-14T04:14:40.325Z,99279.00
2023-05-14T04:15:40.341Z,99281.00
2023-05-14T04:16:40.463Z,99276.00
2023-05-14T04:17:40.446Z,99279.00
2023-05-14T04:18:40.425Z,99280.00
2023-05-14T04:19:40.382Z,99279.00
2023-05-14T04:20:40.396Z,99273.00
2023-05-14T04:21:40.445Z,99276.00
2023-05-14T04:22:40.426Z,99278.00
2023-05-14T04:23:40.453Z,99276.00
2023-05-14T04:24:40.460Z,99275.00
2023-05-14T04:25:40.490Z,99270.00
2023-05-14T04:26:40.522Z,99278.00
2023-05-14T04:27:40.501Z,99278.00
2023-05-14T04:28:40.527Z,99278.00
2023-05-14T04:29:40.493Z,99276.00
2023-05-14T04:30:40.523Z,99276.00
2023-05-14T04:31:40.571Z,99277.00
2023-05-14T04:32:40.557Z,99277.00
2023-05-14T04:33:40.543Z,99273.00
2023-05-14T04:34:40.514Z,99277.00
2023-05-14T04:35:40.522Z,99277.00
2023-05-14T04:36:40.563Z,99276.00
2023-05-14T04:37:40.605Z,99274.00
2023-05-14T04:38:40.590Z,99272.00
2023-05-14T04:39:40.714Z,99276.00
2023-05-14T04:40:40.614Z,99272.00
2023-05-14T04:41:40.623Z,99272.00
2023-05-14T04:42:40.625Z,99272.00
2023-05-14T04:43:40.647Z,99271.00
2023-05-14T04:44:40.668Z,99273.00
2023-05-14T04:45:40.718Z,99276.00
2023-05-14T04:46:40.722Z,99270.00
2023-05-14T04:47:40.707Z,99272.00
2023-05-14T04:48:40.702Z,99275.00
2023-05-14T04:49:40.736Z,99274.00
2023-05-14T04:50:40.752Z,99274.00
2023-05-14T04:51:40.785Z,99274.00
2023-05-14T04:52:40.775Z,99274.00
2023-05-14T04:53:40.816Z,99273.00
2023-05-14T04:54:40.911Z,99274.00
2023-05-14T04:55:40.849Z,99272.00
2023-05-14T04:56:40.862Z,99272.00
2023-05-14T04:57:40.888Z,99270.00
2023-05-14T04:58:40.906Z,99271.00
2023-05-14T04:59:40.889Z,99273.00
2023-05-14T05:00:40.902Z,99271.00
2023-05-14T05:01:41.031Z,99277.00
2023-05-14T05:02:40.998Z,99275.00
2023-05-14T05:03:40.981Z,99278.00
2023-05-14T05:04:40.963Z,99279.00
2023-05-14T05:05:41.005Z,99276.00
2023-05-14T05:06:40.978Z,99275.00
2023-05-14T05:07:41.000Z,99275.00
2023-05-14T05:08:41.034Z,99273.00
2023-05-14T05:09:41.004Z,99276.00
2023-05-14T05:10:41.033Z,99280.00
2023-05-14T05:11:41.064Z,99276.00
2023-05-14T05:12:41.077Z,99274.00
2023-05-14T05:13:41.101Z,99278.00
2023-05-14T05:14:41.131Z,99276.00
2023-05-14T05:15:41.154Z,99276.00
2023-05-14T05:16:41.095Z,99274.00
2023-05-14T05:17:41.152Z,99277.00
2023-05-14T05:18:41.173Z,99280.00
2023-05-14T05:19:44.015Z,99278.00
2023-05-14T05:20:41.197Z,99277.00
2023-05-14T05:21:41.264Z,99278.00
2023-05-14T05:22:41.243Z,99279.00
2023-05-14T05:23:41.264Z,99281.00
2023-05-14T05:24:41.314Z,99282.00
2023-05-14T05:25:41.296Z,99279.00
2023-05-14T05:26:41.323Z,99283.00
2023-05-14T05:27:41.333Z,99282.00
2023-05-14T05:28:41.349Z,99281.00
2023-05-14T05:29:41.408Z,99280.00
2023-05-14T05:30:41.377Z,99279.00
2023-05-14T05:31:41.435Z,99278.00
2023-05-14T05:32:41.449Z,99278.00
2023-05-14T05:33:41.419Z,99278.00
2023-05-14T05:34:41.448Z,99275.00
2023-05-14T05:35:41.466Z,99279.00
2023-05-14T05:36:41.485Z,99275.00
2023-05-14T05:37:41.526Z,99279.00
2023-05-14T05:38:41.482Z,99276.00
2023-05-14T05:39:41.517Z,99278.00
2023-05-14T05:40:41.500Z,99277.00
2023-05-14T05:41:41.529Z,99278.00
2023-05-14T05:42:41.559Z,99275.00
2023-05-14T05:43:41.527Z,99274.00
2023-05-14T05:44:41.579Z,99275.00
2023-05-14T05:45:41.625Z,99273.00
2023-05-14T05:46:41.647Z,99276.00
2023-05-14T05:47:41.860Z,99277.00
2023-05-14T05:48:41.597Z,99274.00
2023-05-14T05:49:41.629Z,99275.00
2023-05-14T05:50:41.597Z,99276.00
2023-05-14T05:51:41.621Z,99277.00
2023-05-14T05:52:41.661Z,99276.00
2023-05-14T05:53:41.679Z,99274.00
2023-05-14T05:54:41.652Z,99276.00
2023-05-14T05:55:41.665Z,99281.00
2023-05-14T05:56:41.684Z,99275.00
2023-05-14T05:57:41.701Z,99275.00
2023-05-14T05:58:41.714Z,99271.00
2023-05-14T05:59:41.756Z,99276.00
2023-05-14T06:00:41.753Z,99271.00
2023-05-14T06:01:41.794Z,99273.00
2023-05-14T06:02:41.868Z,99271.00
2023-05-14T06:03:41.785Z,99273.00
2023-05-14T06:04:41.831Z,99269.00
2023-05-14T06:05:41.989Z,99270.00
2023-05-14T06:06:41.862Z,99267.00
2023-05-14T06:07:41.882Z,99272.00
2023-05-14T06:08:41.899Z,99270.00
2023-05-14T06:09:42.006Z,99271.00
2023-05-14T06:10:41.921Z,99273.00
2023-05-14T06:11:41.926Z,99271.00
2023-05-14T06:12:41.941Z,99274.00
2023-05-14T06:13:41.948Z,99270.00
2023-05-14T06:14:41.953Z,99270.00
2023-05-14T06:15:41.976Z,99271.00
2023-05-14T06:16:42.053Z,99269.00
2023-05-14T06:17:42.019Z,99269.00
2023-05-14T06:18:42.016Z,99272.00
2023-05-14T06:19:42.022Z,99271.00
2023-05-14T06:20:41.987Z,99273.00
2023-05-14T06:21:42.028Z,99269.00
2023-05-14T06:22:42.045Z,99271.00
2023-05-14T06:23:42.092Z,99269.00
2023-05-14T06:24:42.085Z,99269.00
2023-05-14T06:25:42.092Z,99271.00
2023-05-14T06:26:42.052Z,99266.00
2023-05-14T06:27:42.081Z,99267.00
2023-05-14T06:28:42.089Z,99268.00
2023-05-14T06:29:42.114Z,99272.00
2023-05-14T06:30:42.132Z,99274.00
2023-05-14T06:31:42.179Z,99272.00
2023-05-14T06:32:42.167Z,99268.00
2023-05-14T06:33:42.178Z,99268.00
2023-05-14T06:34:42.203Z,99264.00
2023-05-14T06:35:42.185Z,99265.00
2023-05-14T06:36:42.194Z,99266.00
2023-05-14T06:37:42.199Z,99266.00
2023-05-14T06:38:42.207Z,99264.00
2023-05-14T06:39:42.221Z,99262.00
2023-05-14T06:40:42.228Z,99258.00
2023-05-14T06:41:42.258Z,99263.00
2023-05-14T06:42:42.267Z,99261.00
2023-05-14T06:43:42.297Z,99259.00
2023-05-14T06:44:42.314Z,99259.00
2023-05-14T06:45:42.330Z,99261.00
2023-05-14T06:46:42.358Z,99257.00
2023-05-14T06:47:42.394Z,99258.00
2023-05-14T06:48:42.422Z,99256.00
2023-05-14T06:49:42.450Z,99257.00
2023-05-14T06:50:42.414Z,99256.00
2023-05-14T06:51:42.426Z,99252.00
2023-05-14T06:52:42.450Z,99255.00
2023-05-14T06:53:42.465Z,99249.00
2023-05-14T06:54:42.483Z,99247.00
2023-05-14T06:55:42.484Z,99248.00
2023-05-14T06:56:42.506Z,99249.00
2023-05-14T06:57:42.533Z,99248.00
2023-05-14T06:58:42.541Z,99252.00
2023-05-14T06:59:42.569Z,99257.00
2023-05-14T07:00:42.548Z,99254.00
2023-05-14T07:01:42.603Z,99256.00
2023-05-14T07:02:42.621Z,99250.00
2023-05-14T07:03:42.611Z,99254.00
2023-05-14T07:04:42.658Z,99248.00
2023-05-14T07:05:42.695Z,99248.00
2023-05-14T07:06:42.654Z,99254.00
2023-05-14T07:07:42.684Z,99256.00
2023-05-14T07:08:42.700Z,99255.00
2023-05-14T07:09:42.724Z,99253.00
2023-05-14T07:10:42.697Z,99258.00
2023-05-14T07:11:42.718Z,99253.00
2023-05-14T07:12:42.757Z,99254.00
2023-05-14T07:13:42.819Z,99255.00
2023-05-14T07:14:42.796Z,99254.00
2023-05-14T07:15:42.783Z,99247.00
2023-05-14T07:16:42.804Z,99254.00
2023-05-14T07:17:42.772Z,99249.00
2023-05-14T07:18:42.789Z,99245.00
2023-05-14T07:19:42.779Z,99244.00
2023-05-14T07:20:42.809Z,99243.00
2023-05-14T07:21:42.831Z,99238.00
2023-05-14T07:22:42.836Z,99239.00
2023-05-14T07:23:42.850Z,99237.00
2023-05-14T07:24:42.880Z,99237.00
2023-05-14T07:25:42.903Z,99236.00
2023-05-14T07:26:42.948Z,99237.00
2023-05-14T07:27:42.963Z,99234.00
2023-05-14T07:28:43.000Z,99235.00
2023-05-14T07:29:43.030Z,99237.00
2023-05-14T07:30:42.995Z,99236.00
2023-05-14T07:31:43.123Z,99232.00
2023-05-14T07:32:43.035Z,99233.00
2023-05-14T07:33:43.020Z,99231.00
2023-05-14T07:34:43.037Z,99223.00
2023-05-14T07:35:43.064Z,99224.00
2023-05-14T07:36:43.072Z,99227.00
2023-05-14T07:37:43.086Z,99225.00
2023-05-14T07:38:43.097Z,99225.00
2023-05-14T07:39:43.145Z,99221.00
2023-05-14T07:40:43.157Z,99221.00
2023-05-14T07:41:43.184Z,99222.00
2023-05-14T07:42:43.214Z,99226.00
2023-05-14T07:43:43.239Z,99225.00
2023-05-14T07:44:43.251Z,99224.00
2023-05-14T07:45:43.279Z,99223.00
2023-05-14T07:46:43.276Z,99225.00
2023-05-14T07:47:43.455Z,99223.00
2023-05-14T07:48:43.355Z,99227.00
2023-05-14T07:49:43.310Z,99226.00
2023-05-14T07:50:43.338Z,99225.00
2023-05-14T07:51:43.353Z,99226.00
2023-05-14T07:52:43.652Z,99226.00
2023-05-14T07:53:43.399Z,99226.00
2023-05-14T07:54:43.406Z,99228.00
2023-05-14T07:55:43.422Z,99224.00
2023-05-14T07:56:43.441Z,99223.00
2023-05-14T07:57:43.484Z,99228.00
2023-05-14T07:58:43.458Z,99224.00
2023-05-14T07:59:43.488Z,99221.00
2023-05-14T08:00:43.502Z,99220.00
2023-05-14T08:01:43.582Z,99216.00
2023-05-14T08:02:43.695Z,99216.00
2023-05-14T08:03:43.650Z,99218.00
2023-05-14T08:04:43.588Z,99218.00
2023-05-14T08:05:43.625Z,99217.00
2023-05-14T08:06:43.636Z,99217.00
2023-05-14T08:07:43.664Z,99216.00
2023-05-14T08:08:43.666Z,99219.00
2023-05-14T08:09:43.689Z,99218.00
2023-05-14T08:10:43.847Z,99220.00
2023-05-14T08:11:43.730Z,99218.00
2023-05-14T08:12:43.757Z,99216.00
2023-05-14T08:13:43.762Z,99210.00
2023-05-14T08:14:43.791Z,99207.00
2023-05-14T08:15:43.806Z,99209.00
2023-05-14T08:16:43.856Z,99210.00
2023-05-14T08:17:43.883Z,99211.00
2023-05-14T08:18:43.895Z,99215.00
2023-05-14T08:19:43.886Z,99212.00
2023-05-14T08:20:43.900Z,99214.00
2023-05-14T08:21:43.896Z,99216.00
2023-05-14T08:22:43.933Z,99215.00
2023-05-14T08:23:43.934Z,99209.00
2023-05-14T08:24:43.941Z,99210.00
2023-05-14T08:25:43.967Z,99214.00
2023-05-14T08:26:43.994Z,99211.00
2023-05-14T08:27:44.005Z,99213.00
2023-05-14T08:28:43.998Z,99216.00
2023-05-14T08:29:44.013Z,99210.00
2023-05-14T08:30:44.131Z,99210.00
2023-05-14T08:31:44.176Z,99206.00
2023-05-14T08:32:44.115Z,99209.00
2023-05-14T08:33:44.095Z,99207.00
2023-05-14T08:34:44.218Z,99201.00
2023-05-14T08:35:44.080Z,99201.00
2023-05-14T08:36:44.102Z,99206.00
2023-05-14T08:37:44.132Z,99201.00
2023-05-14T08:38:44.145Z,99202.00
2023-05-14T08:39:44.129Z,99195.00
2023-05-14T08:40:44.157Z,99200.00
2023-05-14T08:41:44.163Z,99197.00
2023-05-14T08:42:44.191Z,99196.00
2023-05-14T08:43:44.215Z,99196.00
2023-05-14T08:44:44.214Z,99196.00
2023-05-14T08:45:44.228Z,99193.00
2023-05-14T08:46:44.222Z,99196.00
2023-05-14T08:47:44.300Z,99199.00
2023-05-14T08:48:44.258Z,99198.00
2023-05-14T08:49:44.250Z,99196.00
2023-05-14T08:50:44.228Z,99195.00
2023-05-14T08:51:44.235Z,99195.00
2023-05-14T08:52:44.244Z,99194.00
2023-05-14T08:53:44.277Z,99191.00
2023-05-14T08:54:44.295Z,99193.00
2023-05-14T08:55:44.318Z,99190.00
2023-05-14T08:56:44.321Z,99192.00
2023-05-14T08:57:44.353Z,99191.00
2023-05-14T08:58:44.396Z,99193.00
2023-05-14T08:59:44.383Z,99193.00
2023-05-14T09:00:44.395Z,99196.00
2023-05-14T09:01:44.476Z,99192.00
2023-05-14T09:02:44.594Z,99190.00
2023-05-14T09:03:44.523Z,99191.00
2023-05-14T09:04:44.469Z,99194.00
2023-05-14T09:05:44.519Z,99188.00
2023-05-14T09:06:44.528Z,99186.00
2023-05-14T09:07:44.557Z,99187.00
2023-05-14T09:08:44.587Z,99187.00
2023-05-14T09:09:44.564Z,99186.00
2023-05-14T09:10:44.602Z,99183.00
2023-05-14T09:11:44.608Z,99185.00
2023-05-14T09:12:44.648Z,99184.00
2023-05-14T09:13:44.673Z,99186.00
2023-05-14T09:14:44.685Z,99184.00
2023-05-14T09:15:44.712Z,99183.00
2023-05-14T09:16:44.841Z,99187.00
2023-05-14T09:17:44.857Z,99182.00
2023-05-14T09:18:44.903Z,99180.00
2023-05-14T09:19:44.810Z,99183.00
2023-05-14T09:20:44.817Z,99182.00
2023-05-14T09:21:44.848Z,99185.00
2023-05-14T09:22:44.867Z,99184.00
2023-05-14T09:23:44.871Z,99180.00
2023-05-14T09:24:44.885Z,99180.00
2023-05-14T09:25:44.903Z,99178.00
2023-05-14T09:26:44.945Z,99184.00
2023-05-14T09:27:44.900Z,99176.00
2023-05-14T09:28:45.180Z,99181.00
2023-05-14T09:29:44.943Z,99180.00
2023-05-14T09:30:44.915Z,99179.00
2023-05-14T09:31:44.954Z,99179.00
2023-05-14T09:32:44.949Z,99179.00
2023-05-14T09:33:44.958Z,99181.00
2023-05-14T09:34:45.018Z,99180.00
2023-05-14T09:35:44.987Z,99180.00
2023-05-14T09:36:44.995Z,99181.00
2023-05-14T09:37:45.036Z,99185.00
2023-05-14T09:38:45.009Z,99181.00
2023-05-14T09:39:45.025Z,99183.00
2023-05-14T09:40:45.044Z,99182.00
2023-05-14T09:41:45.066Z,99181.00
2023-05-14T09:42:45.102Z,99182.00
2023-05-14T09:43:45.125Z,99179.00
2023-05-14T09:44:45.145Z,99184.00
2023-05-14T09:45:45.153Z,99179.00
2023-05-14T09:46:45.193Z,99179.00
2023-05-14T09:47:45.634Z,99181.00
2023-05-14T09:48:45.316Z,99178.00
2023-05-14T09:49:45.225Z,99179.00
2023-05-14T09:50:45.230Z,99181.00
2023-05-14T09:51:45.269Z,99180.00
2023-05-14T09:52:45.262Z,99178.00
2023-05-14T09:53:45.334Z,99176.00
2023-05-14T09:54:45.299Z,99181.00
2023-05-14T09:55:45.305Z,99184.00
2023-05-14T09:56:45.341Z,99179.00
2023-05-14T09:57:45.312Z,99178.00
2023-05-14T09:58:45.338Z,99178.00
2023-05-14T09:59:45.315Z,99175.00
2023-05-14T10:00:45.564Z,99174.00
2023-05-14T10:01:45.425Z,99179.00
2023-05-14T10:02:45.412Z,99178.00
2023-05-14T10:03:45.438Z,99172.00
2023-05-14T10:04:45.550Z,99176.00
2023-05-14T10:05:45.419Z,99174.00
2023-05-14T10:06:45.442Z,99177.00
2023-05-14T10:07:45.458Z,99173.00
2023-05-14T10:08:45.488Z,99174.00
2023-05-14T10:09:45.535Z,99175.00
2023-05-14T10:10:45.506Z,99165.00
2023-05-14T10:11:45.485Z,99168.00
2023-05-14T10:12:45.519Z,99168.00
2023-05-14T10:13:45.524Z,99171.00
2023-05-14T10:14:45.531Z,99169.00
2023-05-14T10:15:45.578Z,99167.00
2023-05-14T10:16:45.598Z,99170.00
2023-05-14T10:17:45.602Z,99168.00
2023-05-14T10:18:45.603Z,99170.00
2023-05-14T10:19:45.576Z,99167.00
2023-05-14T10:20:45.603Z,99165.00
2023-05-14T10:21:45.573Z,99165.00
2023-05-14T10:22:45.593Z,99166.00
2023-05-14T10:23:45.605Z,99165.00
2023-05-14T10:24:45.645Z,99169.00
2023-05-14T10:25:45.701Z,99169.00
2023-05-14T10:26:45.661Z,99171.00
2023-05-14T10:27:45.681Z,99170.00
2023-05-14T10:28:45.705Z,99169.00
2023-05-14T10:29:45.689Z,99166.00
2023-05-14T10:30:45.794Z,99162.00
2023-05-14T10:31:45.775Z,99163.00
2023-05-14T10:32:45.725Z,99156.00
2023-05-14T10:33:45.726Z,99157.00
2023-05-14T10:34:45.742Z,99157.00
2023-05-14T10:35:45.814Z,99155.00
2023-05-14T10:36:45.783Z,99156.00
2023-05-14T10:37:45.811Z,99160.00
2023-05-14T10:38:45.822Z,99156.00
2023-05-14T10:39:45.855Z,99156.00
2023-05-14T10:40:45.877Z,99154.00
2023-05-14T10:41:45.923Z,99153.00
2023-05-14T10:42:45.892Z,99153.00
2023-05-14T10:43:45.930Z,99152.00
2023-05-14T10:44:45.937Z,99151.00
2023-05-14T10:45:45.968Z,99155.00
2023-05-14T10:46:45.977Z,99150.00
2023-05-14T10:47:46.212Z,99156.00
2023-05-14T10:48:45.954Z,99156.00
2023-05-14T10:49:45.986Z,99153.00
2023-05-14T10:50:46.046Z,99153.00
2023-05-14T10:51:46.097Z,99148.00
2023-05-14T10:52:46.037Z,99146.00
2023-05-14T10:53:46.013Z,99143.00
2023-05-14T10:54:46.027Z,99143.00
2023-05-14T10:55:46.046Z,99143.00
2023-05-14T10:56:46.056Z,99141.00
2023-05-14T10:57:46.152Z,99140.00
2023-05-14T10:58:46.077Z,99138.00
2023-05-14T10:59:46.112Z,99142.00
2023-05-14T11:00:46.123Z,99133.00
2023-05-14T11:01:46.177Z,99142.00
2023-05-14T11:02:46.177Z,99146.00
2023-05-14T11:03:46.363Z,99137.00
2023-05-14T11:04:46.188Z,99140.00
2023-05-14T11:05:46.193Z,99143.00
2023-05-14T11:06:46.203Z,99137.00
2023-05-14T11:07:46.225Z,99141.00
2023-05-14T11:08:46.282Z,99132.00
2023-05-14T11:09:46.237Z,99132.00
2023-05-14T11:10:46.326Z,99131.00
2023-05-14T11:11:46.248Z,99134.00
2023-05-14T11:12:46.285Z,99137.00
2023-05-14T11:13:46.299Z,99129.00
2023-05-14T11:14:46.268Z,99127.00
2023-05-14T11:15:46.296Z,99127.00
2023-05-14T11:16:46.370Z,99126.00
2023-05-14T11:17:46.384Z,99123.00
2023-05-14T11:18:46.401Z,99124.00
2023-05-14T11:19:46.345Z,99125.00
2023-05-14T11:20:46.348Z,99128.00
2023-05-14T11:21:46.431Z,99129.00
2023-05-14T11:22:46.398Z,99127.00
2023-05-14T11:23:46.412Z,99130.00
2023-05-14T11:24:46.440Z,99120.00
2023-05-14T11:25:46.470Z,99125.00
2023-05-14T11:26:46.475Z,99119.00
2023-05-14T11:27:46.502Z,99119.00
2023-05-14T11:28:46.520Z,99114.00
2023-05-14T11:29:46.540Z,99116.00
2023-05-14T11:30:46.529Z,99119.00
2023-05-14T11:31:46.543Z,99115.00
2023-05-14T11:32:46.584Z,99114.00
2023-05-14T11:33:46.540Z,99117.00
2023-05-14T11:34:46.560Z,99114.00
2023-05-14T11:35:46.591Z,99116.00
2023-05-14T11:36:46.598Z,99114.00
2023-05-14T11:37:46.651Z,99110.00
2023-05-14T11:38:46.629Z,99107.00
2023-05-14T11:39:46.661Z,99110.00
2023-05-14T11:40:46.688Z,99110.00
2023-05-14T11:41:46.707Z,99105.00
2023-05-14T11:42:46.773Z,99107.00
2023-05-14T11:43:46.738Z,99108.00
2023-05-14T11:44:46.765Z,99111.00